Time;durP1;ratioP1;P1;durP2;ratioP2;P2;SDS_P1;SDS_P2;PMS_P1;PMS_P2;Temp;Humidity;BMP_temperature;BMP_pressure;BME280_temperature;BME280_humidity;BME280_pressure;Samples;Min_cycle;Max_cycle;Signal;HPM_P1;HPM_P2
2022/05/27 00:01:11;;;;;;;11.65;6.57;;;;;;;14.32;100.00;100959.22;4956899;28;20056;-78
2022/05/27 00:03:38;;;;;;;9.00;5.85;;;;;;;14.31;100.00;100955.69;4988500;28;20367;-79
2022/05/27 00:06:05;;;;;;;10.10;5.68;;;;;;;14.35;100.00;100948.63;4999861;28;20045;-80
2022/05/27 00:08:31;;;;;;;10.30;6.18;;;;;;;14.38;100.00;100956.47;4971744;28;20058;-78
2022/05/27 00:11:00;;;;;;;8.90;4.80;;;;;;;14.42;100.00;100949.34;4985493;28;20378;-79
2022/05/27 00:13:28;;;;;;;7.18;5.22;;;;;;;14.43;100.00;100949.34;4971398;28;20438;-79
2022/05/27 00:15:55;;;;;;;5.40;4.40;;;;;;;14.44;100.00;100943.16;4990524;28;20038;-82
2022/05/27 00:18:22;;;;;;;10.32;4.63;;;;;;;14.47;100.00;100942.22;4966189;28;20057;-79
2022/05/27 00:20:49;;;;;;;6.22;4.35;;;;;;;14.48;100.00;100936.91;4986176;28;20615;-79
2022/05/27 00:23:18;;;;;;;12.98;4.97;;;;;;;14.48;100.00;100933.44;4968485;28;20136;-79
2022/05/27 00:25:44;;;;;;;8.25;4.57;;;;;;;14.52;100.00;100941.25;4973376;28;20060;-78
2022/05/27 00:28:11;;;;;;;6.75;4.22;;;;;;;14.53;100.00;100932.44;4985227;28;20072;-78
2022/05/27 00:30:37;;;;;;;8.23;4.35;;;;;;;14.48;100.00;100915.00;5007869;28;20043;-79
2022/05/27 00:33:05;;;;;;;7.22;4.22;;;;;;;14.44;100.00;100915.97;5006233;28;20053;-83
2022/05/27 00:35:32;;;;;;;6.15;4.57;;;;;;;14.39;100.00;100916.94;4990959;28;20042;-79
2022/05/27 00:37:58;;;;;;;11.30;4.88;;;;;;;14.39;100.00;100921.31;4974286;28;20288;-78
2022/05/27 00:40:34;;;;;;;9.95;4.53;;;;;;;14.40;100.00;100920.41;4960486;28;20070;-79
2022/05/27 00:43:00;;;;;;;8.27;4.80;;;;;;;14.43;100.00;100906.31;4991347;28;20127;-78
2022/05/27 00:45:27;;;;;;;13.07;5.35;;;;;;;14.43;100.00;100911.59;4977314;28;20132;-78
2022/05/27 00:47:58;;;;;;;9.32;5.63;;;;;;;14.39;100.00;100903.75;4990014;28;20396;-78
2022/05/27 00:50:31;;;;;;;6.93;4.72;;;;;;;14.38;100.00;100912.56;4970584;28;20050;-78
2022/05/27 00:52:58;;;;;;;9.00;5.00;;;;;;;14.36;100.00;100911.69;5001853;28;20058;-83
2022/05/27 00:55:29;;;;;;;7.32;5.13;;;;;;;14.35;100.00;100912.63;4975548;28;20172;-80
2022/05/27 00:58:14;;;;;;;9.90;5.88;;;;;;;14.27;100.00;100904.00;4957733;28;20073;-78
2022/05/27 01:00:41;;;;;;;9.43;5.57;;;;;;;14.19;100.00;100896.25;5007000;28;20045;-83
2022/05/27 01:03:10;;;;;;;7.57;5.65;;;;;;;14.13;100.00;100896.41;4971140;28;20334;-79
2022/05/27 01:05:37;;;;;;;10.00;6.60;;;;;;;14.07;100.00;100893.88;5002939;28;20146;-81
2022/05/27 01:08:08;;;;;;;10.80;6.88;;;;;;;14.04;100.00;100892.16;5001586;28;20060;-81
2022/05/27 01:11:09;;;;;;;15.82;7.53;;;;;;;14.03;100.00;100882.53;4989326;28;20042;-79
2022/05/27 01:14:05;;;;;;;9.95;6.50;;;;;;;14.01;100.00;100888.72;4965553;28;20361;-79
2022/05/27 01:16:59;;;;;;;14.05;6.57;;;;;;;13.92;100.00;100884.50;4949275;28;20058;-81
2022/05/27 01:23:24;;;;;;;10.13;6.35;;;;;;;13.78;100.00;100892.66;4987078;28;20061;-81
2022/05/27 01:26:09;;;;;;;13.13;7.43;;;;;;;13.77;100.00;100890.94;5009171;28;20100;-81
2022/05/27 01:28:53;;;;;;;15.15;7.38;;;;;;;13.69;100.00;100898.09;5002470;28;20532;-78
2022/05/27 01:31:35;;;;;;;;;;;;;;;13.62;100.00;100892.06;5015372;28;20523;-83
2022/05/27 01:34:06;;;;;;;15.65;8.85;;;;;;;13.39;100.00;100889.84;4992297;28;19972;-82
2022/05/27 01:36:50;;;;;;;15.90;9.02;;;;;;;13.19;100.00;100885.75;4991385;28;20041;-84
2022/05/27 01:39:45;;;;;;;14.98;9.13;;;;;;;13.11;100.00;100892.88;5008628;28;20034;-82
2022/05/27 01:42:36;;;;;;;13.25;9.73;;;;;;;13.06;100.00;100877.19;5002109;28;20165;-80
2022/05/27 01:45:27;;;;;;;12.77;10.60;;;;;;;13.05;100.00;100879.84;5006869;28;20041;-83
2022/05/27 01:48:12;;;;;;;20.00;11.00;;;;;;;13.07;100.00;100878.06;5012335;28;20508;-80
2022/05/27 01:51:10;;;;;;;12.18;10.88;;;;;;;13.04;100.00;100878.97;5016513;28;20054;-82
2022/05/27 01:54:03;;;;;;;12.52;11.27;;;;;;;13.01;100.00;100875.50;5003577;28;21044;-82
2022/05/27 01:56:43;;;;;;;14.47;11.73;;;;;;;12.98;100.00;100888.72;5000122;28;20168;-83
2022/05/27 01:59:19;;;;;;;16.88;11.05;;;;;;;13.00;100.00;100879.06;4991677;28;20293;-82
2022/05/27 02:02:14;;;;;;;15.75;11.75;;;;;;;13.03;100.00;100879.00;5025423;28;20054;-81
2022/05/27 02:05:02;;;;;;;15.52;12.63;;;;;;;12.99;100.00;100872.91;4995842;28;20046;-85
2022/05/27 02:07:56;;;;;;;14.55;12.75;;;;;;;12.97;100.00;100871.19;4975174;28;20615;-80
2022/05/27 02:10:38;;;;;;;13.82;10.93;;;;;;;12.95;100.00;100865.13;4994015;28;20053;-81
2022/05/27 02:13:12;;;;;;;11.68;10.32;;;;;;;12.94;100.00;100855.50;4996264;28;20054;-82
2022/05/27 02:15:45;;;;;;;13.10;10.93;;;;;;;12.94;100.00;100853.72;5013075;28;20050;-83
2022/05/27 02:18:38;;;;;;;11.75;10.18;;;;;;;12.91;100.00;100857.25;4978870;28;20057;-84
2022/05/27 02:21:34;;;;;;;14.02;11.63;;;;;;;12.91;100.00;100856.41;4999398;28;20034;-82
2022/05/27 02:24:19;;;;;;;10.70;9.70;;;;;;;12.90;100.00;100865.19;5028584;28;20077;-82
2022/05/27 02:27:01;;;;;;;11.38;10.18;;;;;;;12.92;100.00;100884.44;5012665;28;20075;-83
2022/05/27 02:29:36;;;;;;;12.40;11.10;;;;;;;12.94;100.00;100902.78;5006991;28;20053;-83
2022/05/27 02:32:17;;;;;;;9.65;8.70;;;;;;;12.97;100.00;100908.00;5025414;28;20073;-82
2022/05/27 02:35:15;;;;;;;4.43;4.03;;;;;;;12.83;100.00;100924.81;5008243;28;20038;-82
2022/05/27 02:37:55;;;;;;;2.92;2.67;;;;;;;12.55;100.00;100924.31;5010105;28;20060;-83
2022/05/27 02:40:37;;;;;;;2.38;1.70;;;;;;;12.38;100.00;100929.78;4988387;28;20503;-83
2022/05/27 02:43:43;;;;;;;1.63;1.52;;;;;;;12.20;100.00;100923.00;4986984;28;20050;-82
2022/05/27 02:47:07;;;;;;;2.58;1.33;;;;;;;12.11;100.00;100936.22;5000598;28;20046;-82
2022/05/27 02:50:04;;;;;;;2.25;2.00;;;;;;;12.05;100.00;100932.78;5019345;28;20081;-83
2022/05/27 02:53:08;;;;;;;3.40;2.35;;;;;;;12.02;100.00;100948.56;5012587;28;20519;-82
2022/05/27 02:55:56;;;;;;;2.83;2.10;;;;;;;12.03;100.00;100933.66;5005631;28;20177;-81
2022/05/27 02:58:23;;;;;;;3.38;1.92;;;;;;;11.98;100.00;100938.09;5003211;28;20053;-82
2022/05/27 03:00:50;;;;;;;5.32;2.40;;;;;;;11.99;100.00;100942.47;5006034;28;20053;-82
2022/05/27 03:03:17;;;;;;;3.17;2.10;;;;;;;11.94;100.00;100926.72;5002250;28;20056;-82
2022/05/27 03:06:08;;;;;;;2.30;1.95;;;;;;;11.87;100.00;100930.31;4990745;28;20120;-82
2022/05/27 03:09:02;;;;;;;2.53;1.83;;;;;;;11.81;100.00;100930.34;5009091;28;20123;-81
2022/05/27 03:11:44;;;;;;;3.25;2.53;;;;;;;11.77;100.00;100923.41;5017472;28;20045;-82
2022/05/27 03:15:26;;;;;;;3.42;2.17;;;;;;;11.75;100.00;100920.81;5001557;28;20061;-81
2022/05/27 03:18:33;;;;;;;1.85;1.75;;;;;;;11.73;100.00;100923.44;4996201;28;20077;-82
2022/05/27 03:21:44;;;;;;;3.78;2.90;;;;;;;11.70;100.00;100922.59;4998551;28;20481;-84
2022/05/27 03:25:07;;;;;;;2.00;1.70;;;;;;;11.63;100.00;100918.28;4964644;28;20049;-81
2022/05/27 03:27:42;;;;;;;1.65;1.30;;;;;;;11.59;100.00;100909.59;5003343;28;20594;-82
2022/05/27 03:30:18;;;;;;;4.07;1.52;;;;;;;11.57;100.00;100921.84;5010203;28;20061;-82
2022/05/27 03:33:29;;;;;;;1.30;0.90;;;;;;;11.57;100.00;100911.34;5018863;28;20050;-82
2022/05/27 03:36:12;;;;;;;1.10;1.02;;;;;;;11.56;100.00;100931.47;5004098;28;20050;-81
2022/05/27 03:38:59;;;;;;;3.00;2.03;;;;;;;11.56;100.00;100914.84;4971227;28;20575;-86
2022/05/27 03:41:47;;;;;;;3.40;1.13;;;;;;;11.57;100.00;100906.09;4989662;28;20284;-85
2022/05/27 03:44:17;;;;;;;3.55;1.77;;;;;;;11.56;100.00;100901.75;4995151;28;20064;-85
2022/05/27 03:46:44;;;;;;;1.92;1.00;;;;;;;11.58;100.00;100929.69;4970212;28;20136;-85
2022/05/27 03:49:11;;;;;;;2.10;1.83;;;;;;;11.64;100.00;100925.28;5001984;28;20046;-85
2022/05/27 03:52:00;;;;;;;3.22;1.10;;;;;;;11.66;100.00;100924.38;4986043;28;20116;-86
2022/05/27 03:54:26;;;;;;;2.17;1.67;;;;;;;11.70;100.00;100931.31;4986948;28;20050;-85
2022/05/27 03:56:53;;;;;;;1.67;1.58;;;;;;;11.74;100.00;100935.66;4971316;28;20069;-87
2022/05/27 03:59:22;;;;;;;4.93;1.30;;;;;;;11.79;100.00;100940.00;4987935;28;20061;-87
2022/05/27 04:01:53;;;;;;;1.45;1.35;;;;;;;11.84;100.00;100932.97;4986424;28;20089;-85
2022/05/27 04:04:25;;;;;;;1.83;1.42;;;;;;;11.88;100.00;100937.31;5001612;28;20056;-85
2022/05/27 04:06:53;;;;;;;1.90;1.80;;;;;;;11.91;100.00;100942.50;4989215;28;20159;-85
2022/05/27 04:09:21;;;;;;;1.70;1.60;;;;;;;11.98;100.00;100945.97;4982318;28;20673;-85
2022/05/27 04:11:49;;;;;;;2.00;1.40;;;;;;;12.03;100.00;100945.06;5016952;28;20049;-85
2022/05/27 04:14:16;;;;;;;2.50;1.85;;;;;;;12.05;100.00;100950.28;4983877;28;20058;-85
2022/05/27 04:16:45;;;;;;;1.90;1.77;;;;;;;12.07;100.00;100938.00;4986916;28;20046;-85
2022/05/27 04:19:11;;;;;;;2.58;2.35;;;;;;;12.11;100.00;100942.34;4996221;28;21431;-86
2022/05/27 04:21:39;;;;;;;2.22;2.13;;;;;;;12.10;100.00;100948.47;4981757;28;20141;-87
2022/05/27 04:24:06;;;;;;;3.72;2.60;;;;;;;12.10;100.00;100951.09;4985132;28;20050;-87
2022/05/27 04:26:33;;;;;;;2.72;2.53;;;;;;;12.10;100.00;100956.34;4968220;28;20173;-86
2022/05/27 04:29:00;;;;;;;3.20;3.00;;;;;;;12.11;100.00;100941.47;5015298;28;20052;-86
2022/05/27 04:31:27;;;;;;;3.38;2.03;;;;;;;12.17;100.00;100950.13;4986436;28;20050;-86
2022/05/27 04:33:54;;;;;;;3.13;2.90;;;;;;;12.14;100.00;100947.56;4972426;28;20142;-86
2022/05/27 04:36:21;;;;;;;4.85;2.45;;;;;;;12.14;100.00;100950.19;4985346;28;20066;-85
2022/05/27 04:38:48;;;;;;;4.38;3.08;;;;;;;12.10;100.00;100943.22;5002831;28;20618;-86
2022/05/27 04:41:14;;;;;;;3.40;2.28;;;;;;;12.12;100.00;100951.06;5004078;28;20050;-87
2022/05/27 04:43:41;;;;;;;2.58;2.30;;;;;;;12.10;100.00;100951.09;4975804;28;20052;-86
2022/05/27 04:46:07;;;;;;;4.13;2.78;;;;;;;12.12;100.00;100951.06;5000165;28;20313;-86
2022/05/27 04:48:34;;;;;;;6.70;3.58;;;;;;;12.13;100.00;100952.81;5014786;28;21206;-86
2022/05/27 04:51:01;;;;;;;3.65;2.33;;;;;;;12.13;100.00;100955.44;4970378;28;20127;-86
2022/05/27 04:53:28;;;;;;;6.57;2.75;;;;;;;12.11;100.00;100954.59;5005423;28;20050;-86
2022/05/27 04:55:54;;;;;;;5.47;2.58;;;;;;;12.12;100.00;100954.56;4989097;28;20066;-85
2022/05/27 04:58:21;;;;;;;3.85;2.30;;;;;;;12.12;100.00;100954.56;5018717;28;20575;-85
2022/05/27 05:00:49;;;;;;;4.30;2.72;;;;;;;12.12;100.00;100957.19;5005119;28;20128;-85
2022/05/27 05:03:16;;;;;;;4.72;2.70;;;;;;;12.16;100.00;100966.78;4989907;28;20075;-85
2022/05/27 05:05:43;;;;;;;3.88;3.05;;;;;;;12.20;100.00;100970.22;4974553;28;20993;-86
2022/05/27 05:08:41;;;;;;;5.22;2.53;;;;;;;12.20;100.00;100968.50;4986367;28;20046;-84
2022/05/27 05:11:08;;;;;;;6.20;2.78;;;;;;;12.22;100.00;100968.47;4986726;28;20050;-85
2022/05/27 05:13:35;;;;;;;6.05;3.33;;;;;;;12.25;100.00;100978.94;5004058;28;20042;-86
2022/05/27 05:16:04;;;;;;;4.50;3.03;;;;;;;12.29;100.00;100987.66;4972815;28;20504;-85
2022/05/27 05:18:32;;;;;;;6.18;3.67;;;;;;;12.32;100.00;100983.25;4988346;28;20061;-85
2022/05/27 05:20:59;;;;;;;5.63;2.80;;;;;;;12.37;100.00;100985.78;5008865;28;20073;-84
2022/05/27 05:23:25;;;;;;;7.28;3.00;;;;;;;12.44;100.00;100979.59;4991391;28;20065;-83
2022/05/27 05:25:52;;;;;;;4.05;3.47;;;;;;;12.52;100.00;100987.41;5006656;28;20064;-86
2022/05/27 05:28:19;;;;;;;5.90;2.95;;;;;;;12.57;100.00;100981.19;5006801;28;20049;-85
2022/05/27 05:30:45;;;;;;;4.57;2.85;;;;;;;12.60;100.00;100982.91;4976403;28;20096;-86
2022/05/27 05:33:12;;;;;;;5.32;3.20;;;;;;;12.60;100.00;100985.53;5006601;28;20135;-84
2022/05/27 05:35:39;;;;;;;6.00;3.70;;;;;;;12.64;100.00;100978.50;4957563;28;20061;-84
2022/05/27 05:38:06;;;;;;;8.05;2.97;;;;;;;12.67;100.00;100987.22;4988183;28;20052;-85
2022/05/27 05:40:33;;;;;;;9.55;2.97;;;;;;;12.69;100.00;100982.78;5007626;28;20065;-84
2022/05/27 05:43:01;;;;;;;4.88;2.55;;;;;;;12.74;100.00;100988.84;4991825;28;20046;-83
2022/05/27 05:45:29;;;;;;;7.65;3.83;;;;;;;12.73;100.00;100986.25;4992631;28;20050;-84
2022/05/27 05:47:56;;;;;;;7.65;2.63;;;;;;;12.71;100.00;100982.75;4989634;28;20060;-86
2022/05/27 05:50:22;;;;;;;6.40;2.88;;;;;;;12.71;100.00;100977.50;4974990;28;20554;-85
2022/05/27 05:52:49;;;;;;;7.82;2.60;;;;;;;12.68;100.00;100982.81;4988797;28;20046;-84
2022/05/27 05:55:18;;;;;;;6.32;3.25;;;;;;;12.65;100.00;100990.75;5023798;28;20081;-85
2022/05/27 05:57:48;;;;;;;7.63;3.13;;;;;;;12.65;100.00;100991.59;5006139;28;20108;-84
2022/05/27 06:00:23;;;;;;;8.85;2.97;;;;;;;12.64;100.00;100989.00;4987226;28;20049;-86
2022/05/27 06:02:52;;;;;;;6.05;2.10;;;;;;;12.61;100.00;100994.31;4986738;28;20124;-85
2022/05/27 06:05:20;;;;;;;8.48;2.63;;;;;;;12.61;100.00;100986.44;4990368;28;20512;-84
2022/05/27 06:07:47;;;;;;;4.70;2.42;;;;;;;12.58;100.00;100985.56;4989380;28;20575;-84
2022/05/27 06:10:19;;;;;;;7.65;3.53;;;;;;;12.66;100.00;100981.94;5004995;28;20065;-85
2022/05/27 06:12:46;;;;;;;5.55;2.45;;;;;;;12.83;100.00;101000.16;4988827;28;20073;-86
2022/05/27 06:15:15;;;;;;;4.82;2.25;;;;;;;12.92;100.00;100994.78;4993786;28;20488;-84
2022/05/27 06:17:42;;;;;;;5.47;2.97;;;;;;;12.95;100.00;101001.75;4992527;28;20046;-84
2022/05/27 06:20:10;;;;;;;5.85;2.53;;;;;;;12.99;100.00;100999.06;4989921;28;20053;-85
2022/05/27 06:22:36;;;;;;;7.72;3.90;;;;;;;12.97;100.00;100994.69;4975047;28;20110;-85
2022/05/27 06:25:05;;;;;;;7.95;3.25;;;;;;;13.03;100.00;100999.88;4974447;28;20061;-86
2022/05/27 06:27:35;;;;;;;5.43;2.45;;;;;;;13.34;100.00;100992.44;5017389;28;20053;-85
2022/05/27 06:35:32;;;;;;;7.05;3.80;;;;;;;13.71;99.86;101004.16;4989808;28;20030;-81
2022/05/27 06:37:59;;;;;;;8.23;2.50;;;;;;;13.65;100.00;101010.41;4972929;28;20081;-81
2022/05/27 06:40:26;;;;;;;4.18;2.75;;;;;;;13.54;100.00;101009.69;5007003;28;20056;-80
2022/05/27 06:42:52;;;;;;;4.95;3.40;;;;;;;13.49;100.00;101006.25;5003599;28;20069;-82
2022/05/27 06:45:19;;;;;;;6.40;3.15;;;;;;;13.56;100.00;101010.56;4988795;28;20535;-81
2022/05/27 06:47:46;;;;;;;8.05;2.78;;;;;;;13.65;98.46;101006.88;4998644;28;20088;-81
2022/05/27 06:50:13;;;;;;;6.07;3.30;;;;;;;13.79;98.65;101011.94;4988979;28;20046;-82
2022/05/27 06:52:40;;;;;;;7.65;2.55;;;;;;;13.88;97.91;101010.03;4971229;28;20112;-83
2022/05/27 06:55:13;;;;;;;16.23;2.90;;;;;;;13.89;95.21;101009.09;4987885;28;20042;-82
2022/05/27 06:57:40;;;;;;;7.30;2.35;;;;;;;13.93;92.68;101006.44;4990243;28;20069;-82
2022/05/27 07:00:11;;;;;;;5.57;2.10;;;;;;;14.05;90.41;101025.53;4992930;28;20041;-81
2022/05/27 07:02:47;;;;;;;8.63;2.30;;;;;;;14.12;87.42;101017.50;4978874;28;20041;-81
2022/05/27 07:05:14;;;;;;;5.45;2.03;;;;;;;14.34;86.74;101017.97;4992121;28;20034;-82
2022/05/27 07:07:41;;;;;;;5.50;2.08;;;;;;;14.69;83.08;101019.97;4978439;28;20049;-81
2022/05/27 07:10:08;;;;;;;5.07;2.22;;;;;;;15.00;80.70;101011.41;4994628;28;20061;-81
2022/05/27 07:12:37;;;;;;;7.15;2.17;;;;;;;15.21;80.79;101019.75;4996986;28;20544;-81
2022/05/27 07:15:04;;;;;;;5.75;1.70;;;;;;;15.14;77.64;101024.31;4996654;28;20069;-82
2022/05/27 07:17:33;;;;;;;14.20;2.50;;;;;;;15.05;75.07;101027.13;5018979;28;20046;-83
2022/05/27 07:20:00;;;;;;;5.95;2.17;;;;;;;15.15;75.06;101023.41;5007973;28;20054;-81
2022/05/27 07:22:27;;;;;;;6.07;1.67;;;;;;;15.71;73.86;101024.78;4973887;28;20046;-84
2022/05/27 07:24:53;;;;;;;5.32;1.35;;;;;;;16.36;69.16;101025.75;4975047;28;20126;-85
2022/05/27 07:27:20;;;;;;;3.60;1.85;;;;;;;16.39;64.77;101020.41;4976581;28;20333;-84
2022/05/27 07:29:47;;;;;;;3.08;1.45;;;;;;;16.20;66.59;101017.38;4992581;28;20049;-86
2022/05/27 07:32:14;;;;;;;6.25;1.90;;;;;;;16.19;64.43;101023.56;4975165;28;20045;-85
2022/05/27 07:34:41;;;;;;;6.13;1.50;;;;;;;16.03;63.42;101009.91;4995867;28;20053;-84
2022/05/27 07:37:13;;;;;;;5.40;1.33;;;;;;;16.02;63.69;101022.25;4974775;28;20046;-85
2022/05/27 07:39:40;;;;;;;7.70;1.90;;;;;;;16.22;63.42;101018.22;4994513;28;20042;-86
2022/05/27 07:42:07;;;;;;;8.07;1.75;;;;;;;16.17;60.67;101010.41;5000036;28;20045;-85
2022/05/27 07:44:34;;;;;;;3.67;1.30;;;;;;;15.99;62.09;101009.13;4978404;28;20045;-85
2022/05/27 07:47:01;;;;;;;7.53;1.45;;;;;;;16.66;61.18;101012.59;4977989;28;20156;-85
2022/05/27 07:49:28;;;;;;;7.88;1.88;;;;;;;17.02;58.79;101017.75;5020993;28;20057;-85
2022/05/27 07:51:58;;;;;;;4.85;1.58;;;;;;;17.46;57.46;101012.03;4993350;28;20042;-84
2022/05/27 07:54:32;;;;;;;7.43;1.98;;;;;;;17.91;57.31;101007.91;5008388;28;20049;-84
2022/05/27 07:57:00;;;;;;;8.18;2.15;;;;;;;18.38;53.98;101005.38;5019788;28;20395;-84
2022/05/27 07:59:28;;;;;;;3.58;1.15;;;;;;;18.57;53.58;101004.75;5009984;28;20044;-85
2022/05/27 08:01:55;;;;;;;9.63;1.58;;;;;;;18.90;52.06;101001.78;5013553;28;20046;-84
2022/05/27 08:04:24;;;;;;;3.58;1.52;;;;;;;19.36;50.31;100999.09;5011417;28;20042;-84
2022/05/27 08:06:51;;;;;;;3.67;1.77;;;;;;;19.87;48.25;101000.56;5024223;28;20038;-84
2022/05/27 08:09:18;;;;;;;4.30;1.25;;;;;;;19.99;47.16;101002.69;5027776;28;20145;-84
2022/05/27 08:11:45;;;;;;;8.07;1.50;;;;;;;19.68;47.65;101003.09;4996568;28;20046;-86
2022/05/27 08:14:14;;;;;;;4.10;1.90;;;;;;;19.65;47.60;101006.75;5018489;28;20093;-85
2022/05/27 08:16:42;;;;;;;4.78;1.50;;;;;;;19.36;47.78;101007.94;5022672;28;20076;-83
2022/05/27 08:19:12;;;;;;;4.38;1.02;;;;;;;19.01;48.13;101004.88;5034701;28;20056;-85
2022/05/27 08:21:39;;;;;;;6.75;1.88;;;;;;;18.83;48.87;100999.31;5001133;28;20114;-84
2022/05/27 08:24:08;;;;;;;4.32;1.58;;;;;;;18.68;48.65;100995.47;4997158;28;20049;-84
2022/05/27 08:26:35;;;;;;;4.40;1.30;;;;;;;18.40;48.28;101000.91;5007749;28;20104;-85
2022/05/27 08:29:03;;;;;;;2.35;1.33;;;;;;;18.72;47.74;101004.19;5010830;28;20334;-83
2022/05/27 08:31:30;;;;;;;3.33;1.17;;;;;;;19.74;45.75;101016.13;5011993;28;20046;-84
2022/05/27 08:39:38;;;;;;;6.15;1.50;;;;;;;19.87;44.15;101008.56;5020249;28;20049;-84
2022/05/27 08:42:30;;;;;;;2.70;1.00;;;;;;;19.80;44.18;100999.06;5017173;28;20112;-84
2022/05/27 08:45:14;;;;;;;8.00;1.83;;;;;;;19.34;44.62;101005.31;4999293;28;20302;-84
2022/05/27 08:47:52;;;;;;;4.93;1.30;;;;;;;19.29;43.54;101009.09;5010348;28;20136;-85
2022/05/27 08:50:37;;;;;;;9.80;2.13;;;;;;;19.93;42.92;101005.63;5016061;28;20299;-83
2022/05/27 08:53:43;;;;;;;4.60;1.52;;;;;;;20.35;38.18;101017.13;5004665;28;20065;-81
2022/05/27 08:59:31;;;;;;;3.47;0.90;;;;;;;20.78;37.23;101003.69;5001405;28;20073;-81
2022/05/27 09:02:26;;;;;;;6.85;1.42;;;;;;;20.37;36.53;100998.44;5003800;28;20057;-81
2022/05/27 09:05:42;;;;;;;6.22;1.45;;;;;;;20.42;36.36;100997.28;5014702;28;20052;-78
2022/05/27 09:08:22;;;;;;;4.43;1.90;;;;;;;21.28;34.94;101003.09;4983858;28;20060;-79
2022/05/27 09:11:02;;;;;;;5.85;1.33;;;;;;;22.07;33.96;100993.91;5002471;28;20471;-80
2022/05/27 09:13:34;;;;;;;4.88;1.05;;;;;;;22.68;33.06;100998.75;4986015;28;20123;-80
2022/05/27 09:16:12;;;;;;;3.83;1.52;;;;;;;23.12;32.45;100998.09;4998888;28;20054;-82
2022/05/27 09:19:28;;;;;;;6.30;1.30;;;;;;;23.82;31.48;100978.97;4984372;28;20123;-81
2022/05/27 09:22:23;;;;;;;3.30;1.55;;;;;;;23.71;31.36;100982.25;4990304;28;20046;-80
2022/05/27 09:25:07;;;;;;;4.35;1.77;;;;;;;22.14;33.51;100981.97;5020173;28;20065;-82
2022/05/27 09:28:14;;;;;;;3.42;1.35;;;;;;;21.30;35.36;100989.72;4999951;28;20277;-81
2022/05/27 09:30:42;;;;;;;5.68;1.08;;;;;;;21.49;35.08;100990.53;4989924;28;20049;-81
2022/05/27 09:33:17;;;;;;;5.97;1.58;;;;;;;20.97;35.62;100979.75;5018676;28;20489;-82
2022/05/27 09:35:45;;;;;;;5.68;1.55;;;;;;;20.05;37.88;100990.06;4988886;28;20060;-80
2022/05/27 09:38:21;;;;;;;7.25;1.40;;;;;;;19.23;39.65;100996.06;4986622;28;20556;-79
2022/05/27 09:40:57;;;;;;;5.60;1.58;;;;;;;18.38;41.04;101010.69;5003685;28;20096;-81
2022/05/27 09:43:41;;;;;;;5.95;1.90;;;;;;;17.57;42.94;101012.53;4970825;28;20046;-81
2022/05/27 09:46:16;;;;;;;3.60;1.15;;;;;;;16.94;44.93;101010.06;4986629;28;20081;-84
2022/05/27 09:48:44;;;;;;;6.97;1.70;;;;;;;16.83;46.05;101023.56;5002419;28;20481;-80
2022/05/27 09:51:16;;;;;;;7.05;1.58;;;;;;;16.93;46.62;101023.34;4969550;28;20053;-81
2022/05/27 09:53:51;;;;;;;7.05;2.00;;;;;;;17.16;47.21;101022.66;4986693;28;20050;-80
2022/05/27 09:56:43;;;;;;;7.38;1.80;;;;;;;16.81;51.46;100998.94;4969842;28;20566;-80
2022/05/27 09:59:28;;;;;;;8.50;2.58;;;;;;;17.75;50.56;101016.34;5008844;28;20638;-80
2022/05/27 10:02:29;;;;;;;6.03;1.77;;;;;;;19.20;47.17;101012.13;5009342;28;20253;-81
2022/05/27 10:05:05;;;;;;;7.57;2.05;;;;;;;21.10;42.88;100993.34;5005542;28;20071;-79
2022/05/27 10:07:44;;;;;;;6.00;1.98;;;;;;;21.71;41.70;100999.31;4978846;28;20131;-81
2022/05/27 10:10:36;;;;;;;6.30;1.83;;;;;;;21.87;40.08;100989.59;5002776;28;20054;-81
2022/05/27 10:13:24;;;;;;;2.95;1.13;;;;;;;22.72;38.82;100994.97;5014925;28;20038;-83
2022/05/27 10:15:51;;;;;;;3.35;1.50;;;;;;;23.28;36.91;100999.00;4973189;28;20072;-81
2022/05/27 10:18:27;;;;;;;8.15;1.73;;;;;;;23.65;35.00;100995.13;4993151;28;20527;-82
2022/05/27 10:21:15;;;;;;;5.75;1.77;;;;;;;24.30;34.39;100993.97;4989927;28;20412;-80
2022/05/27 10:23:50;;;;;;;3.90;1.40;;;;;;;24.11;34.16;100971.88;4986527;28;20066;-79
2022/05/27 10:26:22;;;;;;;5.75;2.40;;;;;;;22.55;36.75;100982.56;4984819;28;20046;-80
2022/05/27 10:29:06;;;;;;;6.90;1.95;;;;;;;21.35;39.41;100985.03;4988206;28;20124;-82
2022/05/27 10:31:32;;;;;;;;;;;;;;;20.91;40.61;100980.03;4988690;28;20045;-79
2022/05/27 10:34:01;;;;;;;5.45;1.42;;;;;;;20.52;41.06;100978.25;5016429;28;19929;-79
2022/05/27 10:37:10;;;;;;;4.18;1.63;;;;;;;19.71;42.55;100988.81;4985734;28;20056;-81
2022/05/27 10:40:16;;;;;;;6.25;1.35;;;;;;;21.40;39.14;100972.34;4995236;28;20115;-82
2022/05/27 10:43:00;;;;;;;7.05;2.08;;;;;;;21.79;38.23;100981.13;5009398;28;20104;-80
2022/05/27 10:45:39;;;;;;;4.65;1.42;;;;;;;20.93;39.20;100995.00;5007073;28;20132;-81
2022/05/27 10:48:19;;;;;;;3.03;1.25;;;;;;;21.38;37.81;100992.88;4990648;28;20053;-80
2022/05/27 10:51:06;;;;;;;6.00;1.70;;;;;;;22.55;35.24;100998.56;5003424;28;20053;-81
2022/05/27 10:54:13;;;;;;;4.22;1.27;;;;;;;23.48;31.55;100982.75;5002961;28;20046;-79
2022/05/27 11:03:05;;;;;;;6.72;1.55;;;;;;;26.02;27.04;100965.00;5005793;28;20102;-83
2022/05/27 11:06:19;;;;;;;5.78;1.95;;;;;;;26.37;25.76;100972.44;5003491;28;20145;-82
2022/05/27 11:10:00;;;;;;;8.88;1.25;;;;;;;25.16;27.46;100982.34;5010808;28;20046;-81
2022/05/27 11:16:33;;;;;;;9.10;1.40;;;;;;;25.56;27.14;100977.91;4949401;28;20456;-83
2022/05/27 11:19:38;;;;;;;5.75;2.13;;;;;;;25.34;25.31;100983.81;4985744;28;20093;-83
2022/05/27 11:22:35;;;;;;;6.32;1.30;;;;;;;23.13;28.45;101005.19;4984578;28;20060;-85
2022/05/27 11:25:29;;;;;;;6.80;1.65;;;;;;;22.84;28.83;101002.31;5002069;28;20037;-83
2022/05/27 11:28:50;;;;;;;5.38;1.63;;;;;;;24.89;26.98;101002.78;4987933;28;20053;-85
2022/05/27 11:32:03;;;;;;;3.88;1.17;;;;;;;26.17;24.50;100982.75;4970189;28;20510;-84
2022/05/27 11:34:49;;;;;;;3.97;1.55;;;;;;;25.68;24.98;101002.19;4998259;28;20467;-83
2022/05/27 11:37:45;;;;;;;7.28;1.50;;;;;;;23.89;27.68;101014.22;5011144;28;20045;-82
2022/05/27 11:40:30;;;;;;;3.67;1.42;;;;;;;22.43;30.13;101000.94;4964849;28;20048;-83
2022/05/27 11:43:23;;;;;;;5.72;1.75;;;;;;;21.07;32.02;101009.47;4985823;28;20068;-82
2022/05/27 11:46:22;;;;;;;3.97;1.58;;;;;;;20.86;32.94;101006.00;5000479;28;20091;-83
2022/05/27 11:49:28;;;;;;;5.05;1.60;;;;;;;23.18;29.89;101007.59;5000748;28;20046;-84
2022/05/27 11:52:26;;;;;;;3.97;1.25;;;;;;;24.77;26.55;100999.06;5004191;28;20077;-84
2022/05/27 11:55:10;;;;;;;6.20;1.40;;;;;;;25.53;25.67;101002.25;4983863;28;20539;-83
2022/05/27 11:57:42;;;;;;;3.15;1.02;;;;;;;24.43;27.07;101005.63;4982267;28;20045;-83
2022/05/27 12:00:15;;;;;;;4.05;1.00;;;;;;;25.56;25.87;100990.47;4984831;28;20054;-85
2022/05/27 12:02:58;;;;;;;2.75;1.33;;;;;;;26.90;23.93;100991.94;4968898;28;20447;-83
2022/05/27 12:05:35;;;;;;;4.47;1.40;;;;;;;27.99;23.76;100986.59;4968224;28;20053;-82
2022/05/27 12:08:28;;;;;;;5.03;1.75;;;;;;;29.46;21.72;100983.00;5014042;28;20041;-83
2022/05/27 12:11:24;;;;;;;4.80;1.52;;;;;;;30.47;21.12;100981.59;4986994;28;20143;-83
2022/05/27 12:14:07;;;;;;;5.78;1.55;;;;;;;29.86;20.85;100974.22;4972842;28;20046;-84
2022/05/27 12:16:37;;;;;;;3.83;1.58;;;;;;;29.56;21.80;100975.00;5000780;28;20053;-85
2022/05/27 12:19:34;;;;;;;5.38;1.55;;;;;;;29.92;21.24;100981.84;4984913;28;20152;-84
2022/05/27 12:22:19;;;;;;;7.43;1.60;;;;;;;30.33;21.01;100957.59;4984019;28;20417;-82
2022/05/27 12:24:51;;;;;;;4.65;1.00;;;;;;;28.62;22.81;100973.59;4994052;28;20540;-83
2022/05/27 12:27:19;;;;;;;9.02;2.53;;;;;;;26.51;25.15;100991.13;4982373;28;20057;-84
2022/05/27 12:29:50;;;;;;;3.40;1.77;;;;;;;26.39;25.75;100984.81;4986369;28;20083;-83
2022/05/27 12:32:19;;;;;;;4.88;1.25;;;;;;;26.57;24.88;100984.47;4999913;28;20339;-86
2022/05/27 12:34:48;;;;;;;5.55;1.35;;;;;;;27.47;24.25;100983.38;4997275;28;20046;-83